createdAt,value
2023-02-11T00:01:22.272Z,35.73
2023-02-11T00:03:50.038Z,34.77
2023-02-11T00:06:17.938Z,25.40
2023-02-11T00:08:46.003Z,25.40
2023-02-11T00:11:19.186Z,27.47
2023-02-11T00:13:47.458Z,38.10
2023-02-11T00:16:18.354Z,35.40
2023-02-11T00:18:46.732Z,30.47
2023-02-11T00:21:17.083Z,33.73
2023-02-11T00:23:45.945Z,29.13
2023-02-11T00:26:22.903Z,35.43
2023-02-11T00:28:51.933Z,30.97
2023-02-11T00:31:22.058Z,42.20
2023-02-11T00:33:49.831Z,33.60
2023-02-11T00:36:22.463Z,36.60
2023-02-11T00:38:52.068Z,51.67
2023-02-11T00:41:20.368Z,53.63
2023-02-11T00:43:48.484Z,50.37
2023-02-11T00:46:16.463Z,39.80
2023-02-11T00:48:44.292Z,47.37
2023-02-11T00:51:12.150Z,62.87
2023-02-11T00:53:40.595Z,62.77
2023-02-11T00:56:08.316Z,64.57
2023-02-11T00:58:36.848Z,47.90
2023-02-11T01:01:05.678Z,38.57
2023-02-11T01:03:33.825Z,34.97
2023-02-11T01:06:02.214Z,32.87
2023-02-11T01:08:29.921Z,42.77
2023-02-11T01:11:03.572Z,31.97
2023-02-11T01:13:34.001Z,35.97
2023-02-11T01:16:02.015Z,37.13
2023-02-11T01:18:29.634Z,35.17
2023-02-11T01:20:57.265Z,36.43
2023-02-11T01:23:24.861Z,32.93
2023-02-11T01:25:52.869Z,37.97
2023-02-11T01:28:24.833Z,36.70
2023-02-11T01:30:53.815Z,35.85
2023-02-11T01:33:22.663Z,39.60
2023-02-11T01:35:52.236Z,36.93
2023-02-11T01:38:23.431Z,41.17
2023-02-11T01:40:59.430Z,35.77
2023-02-11T01:43:30.736Z,30.77
2023-02-11T01:46:25.018Z,37.50
2023-02-11T01:49:12.871Z,28.70
2023-02-11T01:51:46.455Z,26.20
2023-02-11T01:54:38.597Z,28.87
2023-02-11T01:57:22.187Z,39.27
2023-02-11T02:00:05.231Z,44.50
2023-02-11T02:03:11.594Z,42.77
2023-02-11T02:06:01.967Z,38.03
2023-02-11T02:08:51.495Z,28.90
2023-02-11T02:11:19.335Z,25.83
2023-02-11T02:13:47.279Z,33.03
2023-02-11T02:16:18.833Z,35.67
2023-02-11T02:19:08.689Z,32.00
2023-02-11T02:21:42.307Z,28.23
2023-02-11T02:24:34.637Z,31.17
2023-02-11T02:27:29.556Z,39.10
2023-02-11T02:30:15.799Z,31.53
2023-02-11T02:32:58.217Z,26.97
2023-02-11T02:35:52.409Z,27.70
2023-02-11T02:38:35.647Z,25.03
2023-02-11T02:41:08.177Z,21.30
2023-02-11T02:43:42.830Z,27.17
2023-02-11T02:46:15.250Z,29.70
2023-02-11T02:48:43.790Z,33.33
2023-02-11T02:51:35.771Z,23.57
2023-02-11T02:54:28.333Z,33.03
2023-02-11T02:57:14.734Z,28.05
2023-02-11T02:59:54.300Z,25.27
2023-02-11T03:02:42.414Z,17.53
2023-02-11T03:05:16.159Z,24.63
2023-02-11T03:08:08.522Z,22.17
2023-02-11T03:10:43.337Z,19.37
2023-02-11T03:13:12.879Z,19.23
2023-02-11T03:15:44.709Z,26.70
2023-02-11T03:18:15.893Z,34.17
2023-02-11T03:20:47.591Z,26.20
2023-02-11T03:23:18.728Z,21.43
2023-02-11T03:25:52.942Z,22.57
2023-02-11T03:28:26.953Z,22.97
2023-02-11T03:31:06.945Z,24.90
2023-02-11T03:33:46.003Z,25.27
2023-02-11T03:36:22.942Z,19.13
2023-02-11T03:38:55.991Z,24.30
2023-02-11T03:41:25.302Z,20.07
2023-02-11T03:43:56.989Z,26.70
2023-02-11T03:46:38.039Z,58.73
2023-02-11T03:49:11.185Z,51.37
2023-02-11T03:51:39.453Z,53.93
2023-02-11T03:54:14.244Z,50.03
2023-02-11T03:56:55.896Z,31.03
2023-02-11T03:59:23.560Z,42.10
2023-02-11T04:01:51.463Z,27.63
2023-02-11T04:04:19.477Z,33.37
2023-02-11T04:06:47.107Z,34.07
2023-02-11T04:09:17.477Z,38.93
2023-02-11T04:11:45.097Z,25.83
2023-02-11T04:14:13.008Z,33.57
2023-02-11T04:16:40.620Z,40.67
2023-02-11T04:19:08.236Z,34.17
2023-02-11T04:21:35.808Z,28.43
2023-02-11T04:24:03.633Z,20.20
2023-02-11T04:26:31.223Z,25.13
2023-02-11T04:28:58.808Z,18.20
2023-02-11T04:31:26.603Z,22.27
2023-02-11T04:33:54.493Z,19.80
2023-02-11T04:36:22.127Z,16.23
2023-02-11T04:38:50.335Z,20.87
2023-02-11T04:41:17.963Z,21.37
2023-02-11T04:43:45.649Z,29.57
2023-02-11T04:46:13.624Z,27.43
2023-02-11T04:48:41.261Z,25.30
2023-02-11T04:51:08.836Z,19.07
2023-02-11T04:53:36.422Z,26.77
2023-02-11T04:56:04.278Z,23.53
2023-02-11T04:58:31.999Z,27.00
2023-02-11T05:01:14.969Z,27.57
2023-02-11T05:03:43.210Z,25.48
2023-02-11T05:06:11.119Z,20.73
2023-02-11T05:08:38.803Z,23.03
2023-02-11T05:11:07.684Z,28.30
2023-02-11T05:13:35.304Z,28.07
2023-02-11T05:16:03.056Z,24.53
2023-02-11T05:18:30.607Z,37.07
2023-02-11T05:20:58.299Z,25.77
2023-02-11T05:23:25.855Z,28.47
2023-02-11T05:25:53.695Z,34.70
2023-02-11T05:28:21.334Z,33.50
2023-02-11T05:30:49.070Z,38.33
2023-02-11T05:33:16.670Z,29.23
2023-02-11T05:35:44.315Z,46.07
2023-02-11T05:38:12.038Z,37.00
2023-02-11T05:40:39.665Z,31.33
2023-02-11T05:43:07.460Z,30.23
2023-02-11T05:45:35.207Z,37.60
2023-02-11T05:48:02.849Z,33.53
2023-02-11T05:50:30.482Z,42.00
2023-02-11T05:52:58.527Z,31.90
2023-02-11T05:55:26.581Z,62.33
2023-02-11T05:57:54.244Z,62.97
2023-02-11T06:00:22.062Z,69.27
2023-02-11T06:02:49.748Z,65.97
2023-02-11T06:05:17.500Z,60.30
2023-02-11T06:07:45.453Z,59.83
2023-02-11T06:10:13.477Z,52.30
2023-02-11T06:12:41.066Z,52.07
2023-02-11T06:15:09.067Z,44.10
2023-02-11T06:17:37.481Z,38.10
2023-02-11T06:20:08.704Z,38.87
2023-02-11T06:22:36.372Z,47.13
2023-02-11T06:25:04.429Z,40.03
2023-02-11T06:27:32.289Z,42.37
2023-02-11T06:29:59.918Z,37.57
2023-02-11T06:32:43.895Z,42.63
2023-02-11T06:35:13.861Z,37.87
2023-02-11T06:37:42.247Z,45.70
2023-02-11T06:40:11.614Z,49.20
2023-02-11T06:42:39.683Z,48.57
2023-02-11T06:45:13.092Z,53.53
2023-02-11T06:47:41.547Z,48.07
2023-02-11T06:50:12.878Z,49.30
2023-02-11T06:52:41.625Z,58.70
2023-02-11T06:55:09.407Z,46.03
2023-02-11T06:57:37.092Z,52.20
2023-02-11T07:00:05.925Z,52.97
2023-02-11T07:02:33.662Z,52.67
2023-02-11T07:05:01.378Z,55.03
2023-02-11T07:07:29.125Z,128.60
2023-02-11T07:09:56.758Z,124.60
2023-02-11T07:12:24.370Z,92.83
2023-02-11T07:14:53.052Z,72.40
2023-02-11T07:17:20.668Z,59.20
2023-02-11T07:19:48.254Z,39.40
2023-02-11T07:22:16.110Z,51.17
2023-02-11T07:24:43.736Z,39.43
2023-02-11T07:27:11.425Z,39.03
2023-02-11T07:29:39.072Z,34.57
2023-02-11T07:32:07.190Z,39.77
2023-02-11T07:34:36.094Z,34.87
2023-02-11T07:37:03.837Z,43.33
2023-02-11T07:39:31.423Z,42.57
2023-02-11T07:41:59.910Z,38.53
2023-02-11T07:44:28.029Z,42.73
2023-02-11T07:46:55.650Z,39.53
2023-02-11T07:49:24.347Z,43.10
2023-02-11T07:51:52.004Z,31.80
2023-02-11T07:54:19.852Z,39.27
2023-02-11T07:56:47.646Z,41.07
2023-02-11T07:59:15.352Z,38.37
2023-02-11T08:01:43.067Z,39.63
2023-02-11T08:04:10.789Z,57.97
2023-02-11T08:06:42.490Z,65.13
2023-02-11T08:09:14.827Z,64.17
2023-02-11T08:11:42.726Z,74.50
2023-02-11T08:14:10.538Z,77.60
2023-02-11T08:16:39.445Z,107.37
2023-02-11T08:19:11.771Z,94.20
2023-02-11T08:21:39.857Z,91.25
2023-02-11T08:24:08.352Z,72.03
2023-02-11T08:26:37.640Z,64.03
2023-02-11T08:29:09.490Z,69.90
2023-02-11T08:31:40.344Z,60.58
2023-02-11T08:34:10.058Z,61.73
2023-02-11T08:36:39.264Z,65.37
2023-02-11T08:39:18.724Z,62.23
2023-02-11T08:41:49.829Z,54.53
2023-02-11T08:44:19.711Z,54.50
2023-02-11T08:46:48.422Z,58.37
2023-02-11T08:49:16.568Z,53.70
2023-02-11T08:51:44.737Z,64.10
2023-02-11T08:54:12.491Z,48.13
2023-02-11T08:56:40.354Z,50.67
2023-02-11T08:59:11.768Z,52.07
2023-02-11T09:01:39.568Z,43.80
2023-02-11T09:04:07.424Z,42.80
2023-02-11T09:06:35.151Z,49.40
2023-02-11T09:09:02.855Z,49.07
2023-02-11T09:11:35.767Z,58.67
2023-02-11T09:16:34.210Z,43.05
2023-02-11T09:19:04.303Z,46.15
2023-02-11T09:21:32.201Z,65.07
2023-02-11T09:23:59.800Z,43.70
2023-02-11T09:26:33.001Z,49.65
2023-02-11T09:29:01.770Z,46.80
2023-02-11T09:31:31.071Z,37.97
2023-02-11T09:34:02.022Z,34.47
2023-02-11T09:36:38.988Z,40.75
2023-02-11T09:39:12.120Z,35.33
2023-02-11T09:41:45.929Z,34.17
2023-02-11T09:44:26.101Z,32.50
2023-02-11T09:46:58.681Z,32.15
2023-02-11T09:49:42.971Z,33.58
2023-02-11T09:52:35.281Z,32.72
2023-02-11T09:55:25.062Z,37.03
2023-02-11T09:57:52.754Z,37.42
2023-02-11T10:00:33.099Z,30.92
2023-02-11T10:03:19.262Z,32.25
2023-02-11T10:05:56.899Z,33.20
2023-02-11T10:09:04.185Z,29.25
2023-02-11T10:11:53.381Z,27.20
2023-02-11T10:14:40.365Z,29.67
2023-02-11T10:17:38.580Z,32.90
2023-02-11T10:20:35.023Z,31.20
2023-02-11T10:23:29.179Z,30.00
2023-02-11T10:25:59.064Z,28.50
2023-02-11T10:28:34.060Z,32.50
2023-02-11T10:31:11.955Z,29.13
2023-02-11T10:33:54.400Z,25.45
2023-02-11T10:36:27.330Z,23.02
2023-02-11T10:41:36.537Z,20.23
2023-02-11T10:44:07.162Z,18.10
2023-02-11T10:46:40.326Z,16.42
2023-02-11T10:49:08.105Z,13.90
2023-02-11T10:51:35.786Z,15.27
2023-02-11T10:54:13.854Z,16.13
2023-02-11T10:56:46.542Z,13.95
2023-02-11T10:59:31.461Z,16.08
2023-02-11T11:02:06.142Z,13.60
2023-02-11T11:04:34.291Z,17.80
2023-02-11T11:07:29.152Z,20.02
2023-02-11T11:10:18.840Z,19.30
2023-02-11T11:12:46.435Z,13.50
2023-02-11T11:15:26.942Z,14.32
2023-02-11T11:18:23.299Z,19.23
2023-02-11T11:21:01.030Z,17.20
2023-02-11T11:23:30.578Z,13.75
2023-02-11T11:26:17.018Z,11.88
2023-02-11T11:28:50.727Z,15.48
2023-02-11T11:31:45.662Z,15.50
2023-02-11T11:34:32.825Z,14.00
2023-02-11T11:37:09.772Z,20.88
2023-02-11T11:39:37.574Z,17.00
2023-02-11T11:42:24.148Z,18.40
2023-02-11T11:45:01.012Z,16.92
2023-02-11T11:48:12.802Z,16.20
2023-02-11T11:50:47.516Z,20.48
2023-02-11T11:53:27.261Z,18.52
2023-02-11T11:56:04.001Z,26.23
2023-02-11T11:58:33.101Z,23.67
2023-02-11T12:01:25.757Z,23.75
2023-02-11T12:04:11.953Z,26.10
2023-02-11T12:07:05.020Z,24.17
2023-02-11T12:10:04.712Z,26.70
2023-02-11T12:12:50.572Z,30.52
2023-02-11T12:15:30.633Z,26.02
2023-02-11T12:18:10.640Z,44.78
2023-02-11T12:20:53.835Z,40.30
2023-02-11T12:26:06.358Z,30.75
2023-02-11T12:28:57.101Z,38.58
2023-02-11T12:31:49.416Z,29.85
2023-02-11T12:34:42.474Z,30.02
2023-02-11T12:37:38.093Z,31.05
2023-02-11T12:40:36.832Z,24.67
2023-02-11T12:43:25.084Z,29.13
2023-02-11T12:46:11.715Z,38.55
2023-02-11T12:48:39.632Z,39.33
2023-02-11T12:51:38.443Z,39.55
2023-02-11T12:54:40.327Z,25.10
2023-02-11T12:57:26.614Z,67.22
2023-02-11T12:59:59.452Z,25.70
2023-02-11T13:05:27.695Z,30.95
2023-02-11T13:08:22.238Z,25.90
2023-02-11T13:11:00.111Z,22.77
2023-02-11T13:13:37.423Z,23.95
2023-02-11T13:16:12.676Z,21.15
2023-02-11T13:18:45.529Z,30.15
2023-02-11T13:21:16.516Z,22.35
2023-02-11T13:24:07.612Z,38.85
2023-02-11T13:26:50.732Z,30.83
2023-02-11T13:29:33.580Z,26.77
2023-02-11T13:32:16.337Z,20.98
2023-02-11T13:34:44.468Z,44.28
2023-02-11T13:37:23.222Z,26.80
2023-02-11T13:39:59.633Z,27.80
2023-02-11T13:42:29.121Z,33.72
2023-02-11T13:44:57.954Z,31.83
2023-02-11T13:47:31.115Z,28.80
2023-02-11T13:50:01.370Z,30.30
2023-02-11T13:52:32.834Z,20.42
2023-02-11T13:55:23.520Z,21.67
2023-02-11T13:58:06.549Z,23.48
2023-02-11T14:00:34.909Z,24.70
2023-02-11T14:03:30.386Z,19.90
2023-02-11T14:06:29.279Z,22.95
2023-02-11T14:09:10.167Z,18.92
2023-02-11T14:11:41.742Z,19.25
2023-02-11T14:14:21.898Z,24.45
2023-02-11T14:17:01.552Z,31.38
2023-02-11T14:19:38.946Z,23.88
2023-02-11T14:22:13.814Z,25.02
2023-02-11T14:24:48.589Z,20.08
2023-02-11T14:27:38.903Z,29.52
2023-02-11T14:30:08.044Z,24.20
2023-02-11T14:32:46.396Z,30.83
2023-02-11T14:36:00.728Z,17.27
2023-02-11T14:38:54.023Z,17.65
2023-02-11T14:41:26.348Z,29.08
2023-02-11T14:44:00.773Z,20.45
2023-02-11T14:46:35.749Z,24.63
2023-02-11T14:49:05.552Z,19.13
2023-02-11T14:51:41.437Z,16.23
2023-02-11T14:54:19.669Z,28.25
2023-02-11T14:56:48.323Z,22.70
2023-02-11T14:59:19.448Z,21.73
2023-02-11T15:01:55.631Z,100.72
2023-02-11T15:04:30.137Z,28.90
2023-02-11T15:07:03.676Z,23.65
2023-02-11T15:09:46.164Z,28.60
2023-02-11T15:12:23.827Z,20.35
2023-02-11T15:14:55.899Z,30.25
2023-02-11T15:17:30.741Z,24.50
2023-02-11T15:20:02.626Z,23.73
2023-02-11T15:22:36.886Z,21.83
2023-02-11T15:25:14.104Z,22.70
2023-02-11T15:27:51.308Z,23.85
2023-02-11T15:30:22.452Z,26.23
2023-02-11T15:33:00.742Z,27.98
2023-02-11T15:35:35.602Z,26.38
2023-02-11T15:38:05.236Z,27.58
2023-02-11T15:40:37.764Z,29.10
2023-02-11T15:43:09.815Z,34.63
2023-02-11T15:45:59.491Z,31.20
2023-02-11T15:48:34.093Z,26.13
2023-02-11T15:51:15.575Z,27.92
2023-02-11T15:53:45.138Z,26.80
2023-02-11T15:56:24.298Z,32.28
2023-02-11T15:58:55.178Z,26.70
2023-02-11T16:01:40.382Z,31.88
2023-02-11T16:04:17.802Z,33.90
2023-02-11T16:06:49.266Z,43.92
2023-02-11T16:09:18.235Z,46.05
2023-02-11T16:11:53.769Z,27.48
2023-02-11T16:14:30.004Z,25.92
2023-02-11T16:17:25.367Z,27.13
2023-02-11T16:19:56.590Z,32.45
2023-02-11T16:22:36.596Z,26.98
2023-02-11T16:25:05.889Z,30.55
2023-02-11T16:27:42.864Z,41.00
2023-02-11T16:30:38.185Z,37.13
2023-02-11T16:33:07.874Z,81.45
2023-02-11T16:35:38.330Z,36.88
2023-02-11T16:38:07.070Z,67.68
2023-02-11T16:40:36.354Z,57.70
2023-02-11T16:43:05.061Z,32.25
2023-02-11T16:45:39.940Z,39.30
2023-02-11T16:48:10.289Z,34.63
2023-02-11T16:50:41.086Z,37.05
2023-02-11T16:53:14.580Z,40.15
2023-02-11T16:55:44.107Z,32.13
2023-02-11T16:58:12.093Z,31.38
2023-02-11T17:00:41.150Z,40.47
2023-02-11T17:03:13.572Z,38.80
2023-02-11T17:05:54.667Z,49.45
2023-02-11T17:08:24.154Z,41.03
2023-02-11T17:10:53.357Z,46.15
2023-02-11T17:13:22.111Z,28.08
2023-02-11T17:15:51.439Z,37.88
2023-02-11T17:18:20.502Z,29.45
2023-02-11T17:20:49.760Z,30.13
2023-02-11T17:23:18.102Z,33.15
2023-02-11T17:25:46.825Z,30.63
2023-02-11T17:28:16.964Z,44.22
2023-02-11T17:30:45.712Z,47.45
2023-02-11T17:33:14.491Z,38.92
2023-02-11T17:35:43.474Z,47.10
2023-02-11T17:38:11.532Z,60.67
2023-02-11T17:40:40.938Z,53.90
2023-02-11T17:43:09.861Z,21.80
2023-02-11T17:45:42.181Z,23.10
2023-02-11T17:48:10.357Z,25.05
2023-02-11T17:50:38.434Z,34.05
2023-02-11T17:53:07.367Z,34.42
2023-02-11T17:55:38.723Z,32.38
2023-02-11T17:58:07.427Z,26.92
2023-02-11T18:00:35.742Z,26.67
2023-02-11T18:03:04.814Z,22.40
2023-02-11T18:05:37.462Z,25.35
2023-02-11T18:10:36.940Z,19.55
2023-02-11T18:13:05.878Z,19.67
2023-02-11T18:15:35.218Z,21.75
2023-02-11T18:18:05.391Z,24.35
2023-02-11T18:20:34.098Z,21.48
2023-02-11T18:23:02.883Z,30.05
2023-02-11T18:25:36.313Z,21.85
2023-02-11T18:28:06.685Z,23.17
2023-02-11T18:30:37.094Z,19.92
2023-02-11T18:33:08.966Z,23.45
2023-02-11T18:35:42.429Z,17.70
2023-02-11T18:38:11.177Z,16.02
2023-02-11T18:40:41.235Z,25.35
2023-02-11T18:43:10.128Z,24.20
2023-02-11T18:45:44.202Z,22.48
2023-02-11T18:48:12.895Z,20.25
2023-02-11T18:50:42.472Z,23.48
2023-02-11T18:53:12.491Z,21.75
2023-02-11T18:55:46.864Z,26.25
2023-02-11T18:58:15.992Z,21.17
2023-02-11T19:00:47.681Z,30.05
2023-02-11T19:03:16.760Z,26.42
2023-02-11T19:05:50.017Z,25.85
2023-02-11T19:08:19.986Z,26.40
2023-02-11T19:11:04.407Z,23.50
2023-02-11T19:13:32.993Z,21.17
2023-02-11T19:16:05.416Z,20.83
2023-02-11T19:18:34.493Z,19.67
2023-02-11T19:21:13.319Z,26.00
2023-02-11T19:23:43.153Z,30.85
2023-02-11T19:26:12.213Z,28.52
2023-02-11T19:28:40.716Z,20.05
2023-02-11T19:31:10.588Z,23.50
2023-02-11T19:33:40.980Z,22.65
2023-02-11T19:36:16.404Z,27.48
2023-02-11T19:38:45.813Z,17.40
2023-02-11T19:41:19.780Z,19.80
2023-02-11T19:43:54.583Z,22.48
2023-02-11T19:46:28.450Z,20.40
2023-02-11T19:48:57.383Z,24.83
2023-02-11T19:51:26.312Z,22.33
2023-02-11T19:53:55.273Z,16.33
2023-02-11T19:56:27.988Z,23.75
2023-02-11T19:58:59.128Z,23.20
2023-02-11T20:01:27.649Z,26.05
2023-02-11T20:04:00.458Z,17.77
2023-02-11T20:09:17.521Z,23.52
2023-02-11T20:11:47.571Z,17.80
2023-02-11T20:14:16.401Z,36.13
2023-02-11T20:16:48.675Z,19.73
2023-02-11T20:19:21.938Z,17.20
2023-02-11T20:21:53.808Z,19.20
2023-02-11T20:24:23.333Z,25.33
2023-02-11T20:26:56.282Z,19.65
2023-02-11T20:29:26.077Z,24.77
2023-02-11T20:32:02.292Z,20.52
2023-02-11T20:34:31.529Z,23.80
2023-02-11T20:37:00.195Z,26.30
2023-02-11T20:39:29.117Z,22.88
2023-02-11T20:41:58.498Z,23.88
2023-02-11T20:44:27.443Z,18.40
2023-02-11T20:46:58.395Z,16.83
2023-02-11T20:49:28.892Z,24.42
2023-02-11T20:51:59.011Z,24.30
2023-02-11T20:54:29.157Z,18.30
2023-02-11T20:56:58.907Z,20.30
2023-02-11T20:59:28.287Z,19.05
2023-02-11T21:01:58.245Z,18.38
2023-02-11T21:04:30.911Z,22.25
2023-02-11T21:07:06.216Z,26.25
2023-02-11T21:09:35.641Z,25.73
2023-02-11T21:12:04.133Z,28.92
2023-02-11T21:14:32.998Z,19.30
2023-02-11T21:17:01.609Z,18.15
2023-02-11T21:19:30.081Z,15.70
2023-02-11T21:22:01.231Z,17.02
2023-02-11T21:24:31.413Z,21.15
2023-02-11T21:27:00.131Z,19.38
2023-02-11T21:29:29.290Z,24.77
2023-02-11T21:31:58.144Z,25.25
2023-02-11T21:34:31.837Z,30.35
2023-02-11T21:37:00.641Z,18.52
2023-02-11T21:39:33.872Z,24.65
2023-02-11T21:42:03.418Z,28.35
2023-02-11T21:44:35.436Z,29.08
2023-02-11T21:47:06.426Z,22.55
2023-02-11T21:49:35.644Z,22.45
2023-02-11T21:52:04.070Z,19.50
2023-02-11T21:54:33.129Z,20.73
2023-02-11T21:57:03.502Z,27.65
2023-02-11T21:59:32.507Z,28.65
2023-02-11T22:02:01.190Z,21.88
2023-02-11T22:04:29.182Z,21.98
2023-02-11T22:06:57.080Z,28.70
2023-02-11T22:09:25.313Z,19.30
2023-02-11T22:11:54.132Z,16.83
2023-02-11T22:14:22.369Z,21.38
2023-02-11T22:16:50.805Z,18.05
2023-02-11T22:19:19.010Z,18.98
2023-02-11T22:21:47.072Z,22.70
2023-02-11T22:24:14.944Z,20.63
2023-02-11T22:26:42.656Z,16.58
2023-02-11T22:29:11.172Z,21.98
2023-02-11T22:31:39.539Z,12.15
2023-02-11T22:34:07.539Z,16.08
2023-02-11T22:36:38.005Z,26.67
2023-02-11T22:39:08.664Z,21.73
2023-02-11T22:41:38.373Z,18.52
2023-02-11T22:44:06.414Z,15.02
2023-02-11T22:46:34.824Z,20.40
2023-02-11T22:49:02.480Z,17.00
2023-02-11T22:51:30.783Z,26.38
2023-02-11T22:54:01.649Z,24.52
2023-02-11T22:56:30.946Z,19.08
2023-02-11T22:59:03.654Z,13.00
2023-02-11T23:01:32.081Z,17.08
2023-02-11T23:04:01.225Z,17.60
2023-02-11T23:06:28.875Z,21.50
2023-02-11T23:08:56.636Z,14.85
2023-02-11T23:11:27.147Z,11.90
2023-02-11T23:13:55.095Z,16.60
2023-02-11T23:16:31.945Z,16.30
2023-02-11T23:19:02.171Z,15.98
2023-02-11T23:21:32.523Z,17.13
2023-02-11T23:24:02.865Z,16.65
2023-02-11T23:26:30.958Z,17.65
2023-02-11T23:29:17.312Z,14.70
2023-02-11T23:31:46.611Z,18.02
2023-02-11T23:34:20.412Z,15.57
2023-02-11T23:36:48.087Z,14.95
2023-02-11T23:39:17.176Z,22.73
2023-02-11T23:41:45.571Z,18.58
2023-02-11T23:44:13.193Z,14.68
2023-02-11T23:46:40.879Z,17.70
2023-02-11T23:49:08.556Z,13.55
2023-02-11T23:51:36.181Z,15.80
2023-02-11T23:54:03.913Z,16.55
2023-02-11T23:56:31.807Z,15.00
2023-02-11T23:58:59.536Z,16.98
